Time;durP1;ratioP1;P1;durP2;ratioP2;P2;SDS_P1;SDS_P2;PMS_P1;PMS_P2;Temp;Humidity;BMP_temperature;BMP_pressure;BME280_temperature;BME280_humidity;BME280_pressure;Samples;Min_cycle;Max_cycle;Signal;HPM_P1;HPM_P2
2022/12/26 00:01:53;;;;;;;81.03;24.55;;;8.00;99.90;;;;;;5006218;28;20068;-79
2022/12/26 00:04:19;;;;;;;53.47;21.23;;;8.00;99.90;;;;;;5006537;28;20038;-80
2022/12/26 00:06:45;;;;;;;61.58;23.40;;;8.00;99.90;;;;;;5006934;28;20046;-78
2022/12/26 00:09:11;;;;;;;63.72;23.83;;;8.00;99.90;;;;;;5005386;28;20175;-78
2022/12/26 00:11:36;;;;;;;76.00;25.00;;;8.00;99.90;;;;;;5006281;28;20510;-78
2022/12/26 00:14:06;;;;;;;81.32;27.23;;;8.00;99.90;;;;;;5005852;28;20064;-78
2022/12/26 00:16:32;;;;;;;108.70;30.88;;;8.00;99.90;;;;;;5005996;28;20042;-78
2022/12/26 00:18:58;;;;;;;71.97;25.08;;;8.00;99.90;;;;;;5004863;28;20113;-78
2022/12/26 00:21:26;;;;;;;60.03;20.77;;;8.00;99.90;;;;;;5005517;28;20087;-78
2022/12/26 00:23:52;;;;;;;76.25;24.02;;;8.00;99.90;;;;;;5004111;28;20061;-79
2022/12/26 00:26:20;;;;;;;69.53;25.83;;;8.00;99.90;;;;;;5006518;28;20038;-78
2022/12/26 00:28:45;;;;;;;62.35;22.20;;;8.00;99.90;;;;;;5004995;28;20472;-78
2022/12/26 00:31:17;;;;;;;61.22;23.02;;;8.00;99.90;;;;;;5005504;28;20052;-78
2022/12/26 00:33:43;;;;;;;74.57;24.23;;;8.00;99.90;;;;;;5004638;28;20041;-78
2022/12/26 00:36:14;;;;;;;70.05;26.27;;;8.00;99.90;;;;;;5006015;28;20054;-78
2022/12/26 00:38:41;;;;;;;65.35;23.83;;;8.00;99.90;;;;;;5004916;28;20045;-78
2022/12/26 00:41:08;;;;;;;59.53;21.13;;;8.00;99.90;;;;;;5005610;28;20048;-78
2022/12/26 00:43:34;;;;;;;50.83;20.65;;;8.00;99.90;;;;;;5005660;28;20072;-78
2022/12/26 00:46:00;;;;;;;71.05;20.70;;;7.90;99.90;;;;;;5005408;28;20421;-78
2022/12/26 00:48:26;;;;;;;72.40;25.75;;;8.00;99.90;;;;;;5006004;28;20042;-78
2022/12/26 00:50:51;;;;;;;56.38;21.38;;;8.00;99.90;;;;;;5004132;28;20545;-78
2022/12/26 00:53:18;;;;;;;80.88;27.15;;;8.00;99.90;;;;;;5003979;28;20123;-78
2022/12/26 00:55:43;;;;;;;54.15;20.77;;;7.90;99.90;;;;;;5005901;28;20100;-78
2022/12/26 00:58:09;;;;;;;76.15;22.33;;;8.00;99.90;;;;;;5005385;28;20034;-78
2022/12/26 01:00:35;;;;;;;69.43;22.92;;;8.00;99.90;;;;;;5005406;28;20050;-78
2022/12/26 01:03:01;;;;;;;75.18;23.80;;;8.00;99.90;;;;;;5005223;28;20060;-78
2022/12/26 01:05:27;;;;;;;64.10;22.17;;;8.00;99.90;;;;;;5005703;28;20125;-78
2022/12/26 01:07:53;;;;;;;55.58;21.58;;;8.00;99.90;;;;;;5003546;28;20050;-79
2022/12/26 01:10:19;;;;;;;72.70;21.45;;;8.00;99.90;;;;;;5005468;28;20064;-80
2022/12/26 01:12:44;;;;;;;62.78;22.10;;;8.00;99.90;;;;;;5005717;28;20046;-78
2022/12/26 01:15:10;;;;;;;60.15;25.08;;;8.00;99.90;;;;;;5004934;28;20412;-78
2022/12/26 01:17:36;;;;;;;62.10;21.15;;;8.00;99.90;;;;;;5004386;28;20428;-78
2022/12/26 01:20:02;;;;;;;75.22;26.98;;;8.00;99.90;;;;;;5005253;28;20073;-78
2022/12/26 01:22:28;;;;;;;67.88;21.60;;;8.00;99.90;;;;;;5004431;28;20684;-78
2022/12/26 01:24:54;;;;;;;55.15;20.10;;;8.00;99.90;;;;;;5005108;28;20088;-79
2022/12/26 01:27:20;;;;;;;68.20;23.95;;;8.00;99.90;;;;;;5004926;28;20064;-79
2022/12/26 01:29:46;;;;;;;59.65;22.45;;;8.00;99.90;;;;;;5005787;28;20489;-79
2022/12/26 01:32:11;;;;;;;55.22;20.33;;;8.00;99.90;;;;;;5005823;28;20084;-78
2022/12/26 01:34:37;;;;;;;63.58;23.25;;;8.00;99.90;;;;;;5009151;28;20049;-78
2022/12/26 01:37:03;;;;;;;47.08;19.63;;;8.00;99.90;;;;;;5007021;28;20503;-78
2022/12/26 01:39:28;;;;;;;54.17;22.35;;;8.10;99.90;;;;;;5009081;28;20030;-78
2022/12/26 01:41:54;;;;;;;59.80;23.52;;;8.00;99.90;;;;;;5008821;28;20089;-78
2022/12/26 01:44:57;;;;;;;53.70;20.55;;;8.00;99.90;;;;;;5008967;28;20056;-78
2022/12/26 01:47:29;;;;;;;52.53;20.05;;;8.00;99.90;;;;;;5007552;28;20507;-79
2022/12/26 01:49:55;;;;;;;43.90;17.45;;;8.00;99.90;;;;;;5008527;28;20042;-78
2022/12/26 01:52:33;;;;;;;39.47;17.52;;;8.00;99.90;;;;;;5007766;28;20052;-78
2022/12/26 01:55:00;;;;;;;35.20;17.25;;;8.10;99.90;;;;;;5008506;28;20473;-78
2022/12/26 01:57:34;;;;;;;44.55;17.73;;;8.00;99.90;;;;;;5008963;28;20053;-78
2022/12/26 02:00:01;;;;;;;35.63;16.95;;;8.10;99.90;;;;;;5008210;28;20061;-78
2022/12/26 02:02:29;;;;;;;30.00;14.65;;;8.10;99.90;;;;;;5007767;28;20088;-78
2022/12/26 02:07:44;;;;;;;33.05;15.38;;;8.10;99.90;;;;;;5007731;28;20078;-79
2022/12/26 02:10:18;;;;;;;34.65;15.93;;;8.10;99.90;;;;;;5008460;28;20034;-78
2022/12/26 02:12:44;;;;;;;40.25;16.45;;;8.10;99.90;;;;;;5008983;28;20045;-79
2022/12/26 02:15:14;;;;;;;36.78;18.00;;;8.10;99.90;;;;;;5008271;28;20052;-78
2022/12/26 02:17:40;;;;;;;39.75;17.88;;;8.10;99.90;;;;;;5008455;28;20496;-78
2022/12/26 02:20:14;;;;;;;40.17;16.80;;;8.10;99.90;;;;;;5007864;28;20052;-78
2022/12/26 02:23:18;;;;;;;49.40;18.75;;;8.10;99.90;;;;;;5007753;28;20037;-78
2022/12/26 02:26:02;;;;;;;50.67;21.13;;;8.10;99.90;;;;;;5007976;28;20050;-79
2022/12/26 02:28:49;;;;;;;46.67;21.08;;;8.20;99.90;;;;;;4987708;28;20072;-79
2022/12/26 02:31:24;;;;;;;51.45;20.10;;;8.20;99.90;;;;;;4988092;28;20068;-78
2022/12/26 02:34:07;;;;;;;41.60;22.05;;;8.20;99.90;;;;;;4987924;28;20038;-79
2022/12/26 02:37:02;;;;;;;52.45;23.08;;;8.20;99.90;;;;;;4988636;28;20078;-79
2022/12/26 02:39:30;;;;;;;55.03;23.02;;;8.20;99.90;;;;;;4987355;28;20074;-79
2022/12/26 02:41:56;;;;;;;49.30;23.38;;;8.20;99.90;;;;;;4988111;28;20050;-79
2022/12/26 02:47:40;;;;;;;61.13;28.13;;;8.20;99.90;;;;;;4988080;28;20627;-78
2022/12/26 03:13:22;;;;;;;61.25;30.20;;;8.20;99.90;;;;;;4967819;28;20412;-78
2022/12/26 03:18:54;;;;;;;58.65;29.13;;;8.30;99.90;;;;;;4967679;28;20066;-78
2022/12/26 03:21:25;;;;;;;66.35;30.25;;;8.30;99.90;;;;;;4968128;28;20130;-79
2022/12/26 03:23:53;;;;;;;58.25;29.13;;;8.40;99.90;;;;;;4965934;28;20133;-80
2022/12/26 03:26:42;;;;;;;66.60;29.95;;;8.30;99.90;;;;;;4968245;28;20508;-79
2022/12/26 03:32:11;;;;;;;75.35;27.88;;;8.30;99.90;;;;;;4968064;28;20059;-79
2022/12/26 03:34:41;;;;;;;58.20;29.58;;;8.30;99.90;;;;;;4966444;28;20227;-78
2022/12/26 03:37:33;;;;;;;55.00;27.20;;;8.30;99.90;;;;;;4967287;28;20043;-78
2022/12/26 04:46:37;;;;;;;50.85;26.17;;;8.20;99.90;;;;;;4967355;28;20422;-78
2022/12/26 04:51:50;;;;;;;47.05;23.60;;;8.20;99.90;;;;;;4964571;28;20054;-78
2022/12/26 04:54:17;;;;;;;40.30;23.95;;;8.20;99.90;;;;;;4967104;28;20039;-78
2022/12/26 04:56:43;;;;;;;43.75;25.33;;;8.20;99.90;;;;;;4966949;28;20126;-78
2022/12/26 04:59:08;;;;;;;40.38;22.05;;;8.20;99.90;;;;;;4966619;28;20178;-79
2022/12/26 05:09:51;;;;;;;40.25;23.45;;;8.10;99.90;;;;;;4965169;28;20314;-80
2022/12/26 05:12:17;;;;;;;46.22;23.48;;;8.10;99.90;;;;;;4966863;28;20268;-79
2022/12/26 05:14:43;;;;;;;51.70;22.88;;;8.10;99.90;;;;;;4966683;28;20097;-78
2022/12/26 05:31:02;;;;;;;42.33;21.60;;;8.10;99.90;;;;;;4945378;29;20497;-78
2022/12/26 05:36:13;;;;;;;43.38;23.65;;;8.10;99.90;;;;;;4946000;29;20134;-78
2022/12/26 05:38:39;;;;;;;33.97;20.30;;;8.10;99.90;;;;;;4946090;29;20156;-79
2022/12/26 05:41:05;;;;;;;37.17;22.77;;;8.00;99.90;;;;;;4946878;28;20143;-78
2022/12/26 05:43:31;;;;;;;36.55;22.75;;;8.00;99.90;;;;;;4947153;29;20075;-78
2022/12/26 05:45:57;;;;;;;36.05;20.77;;;8.10;99.90;;;;;;4947045;29;20593;-79
2022/12/26 05:48:22;;;;;;;39.08;21.92;;;8.00;99.90;;;;;;4947283;29;20043;-79
2022/12/26 05:50:48;;;;;;;36.58;20.73;;;8.10;99.90;;;;;;4946088;29;20114;-78
2022/12/26 05:53:14;;;;;;;34.30;19.80;;;8.00;99.90;;;;;;4946595;29;20112;-79
2022/12/26 05:55:39;;;;;;;38.33;19.27;;;8.10;99.90;;;;;;4946877;29;20544;-78
2022/12/26 05:58:05;;;;;;;29.02;17.02;;;8.10;99.90;;;;;;4946827;29;20097;-78
2022/12/26 06:00:31;;;;;;;31.70;20.48;;;8.10;99.90;;;;;;4945743;29;20493;-79
2022/12/26 06:02:58;;;;;;;39.33;19.13;;;8.10;99.90;;;;;;4945191;29;20050;-79
2022/12/26 06:05:24;;;;;;;27.73;17.77;;;8.10;99.90;;;;;;4946890;29;20062;-78
2022/12/26 06:07:50;;;;;;;27.67;17.95;;;8.10;99.90;;;;;;4945846;29;20043;-79
2022/12/26 06:10:15;;;;;;;32.38;17.77;;;8.10;99.90;;;;;;4947658;29;20039;-78
2022/12/26 06:12:41;;;;;;;23.75;15.55;;;8.10;99.90;;;;;;4946831;29;20047;-79
2022/12/26 06:15:07;;;;;;;32.75;17.55;;;8.20;99.90;;;;;;4946840;28;20058;-79
2022/12/26 06:17:32;;;;;;;22.85;13.98;;;8.10;99.90;;;;;;4947088;29;20122;-78
2022/12/26 06:19:58;;;;;;;29.10;16.02;;;8.20;99.90;;;;;;4931189;29;20090;-78
2022/12/26 06:22:24;;;;;;;32.67;16.50;;;8.20;99.90;;;;;;4949155;29;20047;-79
2022/12/26 06:24:49;;;;;;;25.33;17.38;;;8.20;99.90;;;;;;4950119;29;20869;-79
2022/12/26 06:27:15;;;;;;;22.13;13.35;;;8.20;99.90;;;;;;4961137;28;20066;-79
2022/12/26 06:29:41;;;;;;;24.17;12.85;;;8.20;99.90;;;;;;4969256;28;20073;-78
2022/12/26 06:32:06;;;;;;;22.40;13.77;;;8.20;99.90;;;;;;4967595;28;20047;-78
2022/12/26 06:34:32;;;;;;;19.92;12.93;;;8.20;99.90;;;;;;4969685;28;20124;-78
2022/12/26 06:36:57;;;;;;;26.55;14.38;;;8.20;99.90;;;;;;4968070;28;20054;-79
2022/12/26 06:39:23;;;;;;;18.95;12.68;;;8.10;99.90;;;;;;4969293;28;20370;-79
2022/12/26 06:41:49;;;;;;;23.15;13.70;;;8.10;99.90;;;;;;4951354;28;20485;-80
2022/12/26 06:44:14;;;;;;;21.23;12.25;;;8.10;99.90;;;;;;4969291;28;20042;-79
2022/12/26 06:46:40;;;;;;;26.58;12.35;;;8.00;99.90;;;;;;4969043;28;20047;-78
2022/12/26 06:49:05;;;;;;;23.25;12.88;;;8.00;99.90;;;;;;4967324;28;20061;-78
2022/12/26 06:51:32;;;;;;;16.10;10.85;;;8.00;99.90;;;;;;4966644;28;20047;-79
2022/12/26 06:53:59;;;;;;;19.17;11.73;;;8.00;99.90;;;;;;4968476;28;20856;-79
2022/12/26 06:56:26;;;;;;;25.20;12.65;;;8.00;99.90;;;;;;4968706;28;20057;-79
2022/12/26 06:59:10;;;;;;;18.05;13.38;;;8.00;99.90;;;;;;4969018;28;20126;-78
2022/12/26 07:01:36;;;;;;;17.98;12.15;;;8.00;99.90;;;;;;4967903;28;20470;-78
2022/12/26 07:04:03;;;;;;;20.30;12.30;;;8.00;99.90;;;;;;4967502;28;20111;-78
2022/12/26 07:06:33;;;;;;;17.05;9.60;;;8.00;99.90;;;;;;4967815;28;20054;-79
2022/12/26 07:09:05;;;;;;;18.15;10.85;;;8.00;99.90;;;;;;4968488;28;20043;-79
2022/12/26 07:11:33;;;;;;;15.60;11.10;;;8.00;99.90;;;;;;4967650;28;20054;-78
2022/12/26 07:13:59;;;;;;;16.50;9.07;;;7.90;99.90;;;;;;4968415;28;20035;-79
2022/12/26 07:16:25;;;;;;;17.17;9.23;;;7.90;99.90;;;;;;4968605;28;20035;-78
2022/12/26 07:18:52;;;;;;;15.90;10.23;;;7.80;99.90;;;;;;4968143;28;20135;-79
2022/12/26 07:21:18;;;;;;;12.55;8.82;;;7.90;99.90;;;;;;4966846;28;20516;-78
2022/12/26 07:23:44;;;;;;;14.23;9.57;;;7.80;99.90;;;;;;4968675;28;20043;-78
2022/12/26 07:26:09;;;;;;;13.75;9.05;;;7.80;99.90;;;;;;4966270;28;20413;-78
2022/12/26 07:28:35;;;;;;;15.23;10.00;;;7.80;99.90;;;;;;4949024;29;20051;-78
2022/12/26 07:31:01;;;;;;;17.75;10.38;;;7.80;99.90;;;;;;4948164;28;20047;-78
2022/12/26 07:33:27;;;;;;;11.27;7.90;;;7.80;99.90;;;;;;4947414;29;20096;-79
2022/12/26 07:35:53;;;;;;;13.68;9.45;;;7.80;99.90;;;;;;4947744;29;20086;-79
2022/12/26 07:38:18;;;;;;;18.77;9.23;;;7.70;99.90;;;;;;4948760;29;20078;-79
2022/12/26 07:40:44;;;;;;;13.85;7.88;;;7.70;99.90;;;;;;4949343;29;20436;-78
2022/12/26 07:43:10;;;;;;;12.23;7.50;;;7.70;99.90;;;;;;4948176;29;20479;-79
2022/12/26 07:45:36;;;;;;;18.38;10.10;;;7.70;99.90;;;;;;4947250;29;20043;-78
2022/12/26 07:48:02;;;;;;;15.45;9.50;;;7.70;99.90;;;;;;4948915;29;20486;-78
2022/12/26 07:50:27;;;;;;;11.50;9.30;;;7.70;99.90;;;;;;4947343;29;20051;-79
2022/12/26 07:52:54;;;;;;;18.33;8.40;;;7.70;99.90;;;;;;4947116;29;20072;-78
2022/12/26 07:55:20;;;;;;;11.00;7.30;;;7.70;99.90;;;;;;4948307;29;20073;-79
2022/12/26 07:57:50;;;;;;;9.88;6.72;;;7.70;99.90;;;;;;4948788;29;20050;-78
2022/12/26 08:00:18;;;;;;;13.48;7.20;;;7.80;99.90;;;;;;4948898;29;20043;-78
2022/12/26 08:02:43;;;;;;;14.70;8.85;;;7.80;99.90;;;;;;4947778;29;20047;-78
2022/12/26 08:05:09;;;;;;;15.68;7.22;;;7.80;99.90;;;;;;4946768;29;20070;-78
2022/12/26 08:07:35;;;;;;;9.98;7.80;;;7.80;99.90;;;;;;4947544;29;20422;-78
2022/12/26 08:10:00;;;;;;;10.88;6.95;;;7.80;99.90;;;;;;4948078;29;20394;-78
2022/12/26 08:12:26;;;;;;;7.85;7.05;;;7.80;99.90;;;;;;4948429;29;20035;-78
2022/12/26 08:14:52;;;;;;;12.25;7.50;;;7.90;99.90;;;;;;4946949;29;20198;-78
2022/12/26 08:17:18;;;;;;;11.50;7.20;;;7.90;99.90;;;;;;4948493;29;20274;-78
2022/12/26 08:19:43;;;;;;;10.38;7.28;;;7.90;99.90;;;;;;4948476;29;20039;-79
2022/12/26 08:22:09;;;;;;;10.68;6.55;;;7.90;99.90;;;;;;4946851;29;20410;-78
2022/12/26 08:24:35;;;;;;;8.63;6.40;;;7.90;99.90;;;;;;4948184;29;20379;-78
2022/12/26 08:27:00;;;;;;;16.50;6.82;;;8.00;99.90;;;;;;4956545;28;20035;-78
2022/12/26 08:29:26;;;;;;;15.60;6.25;;;8.00;99.90;;;;;;4967109;28;20048;-78
2022/12/26 08:31:52;;;;;;;9.77;7.00;;;8.00;99.90;;;;;;4966928;28;20046;-79
2022/12/26 08:34:17;;;;;;;8.98;6.05;;;8.00;99.90;;;;;;4967816;28;20130;-78
2022/12/26 08:36:43;;;;;;;10.98;6.60;;;8.10;99.90;;;;;;4966125;28;20050;-78
2022/12/26 08:39:09;;;;;;;10.55;7.32;;;8.10;99.90;;;;;;4981652;28;20123;-79
2022/12/26 08:41:34;;;;;;;15.57;7.97;;;8.00;99.90;;;;;;4966243;28;20053;-78
2022/12/26 08:44:00;;;;;;;17.23;7.80;;;8.10;99.90;;;;;;4965369;28;20100;-78
2022/12/26 08:46:25;;;;;;;13.60;6.50;;;8.00;99.90;;;;;;4966747;28;20093;-79
2022/12/26 08:48:51;;;;;;;12.25;6.35;;;8.10;99.90;;;;;;4965234;28;20102;-78
2022/12/26 08:51:22;;;;;;;8.95;6.22;;;8.00;99.90;;;;;;4966043;28;20051;-78
2022/12/26 08:53:49;;;;;;;14.80;6.00;;;8.00;99.90;;;;;;4967253;28;20035;-78
2022/12/26 08:56:23;;;;;;;13.68;7.10;;;8.00;99.90;;;;;;4966830;28;20080;-78
2022/12/26 08:58:49;;;;;;;9.80;5.93;;;8.00;99.90;;;;;;4966191;28;20508;-79
2022/12/26 09:01:18;;;;;;;8.68;5.15;;;8.00;99.90;;;;;;4966807;28;20039;-78
2022/12/26 09:03:44;;;;;;;7.60;3.75;;;8.00;99.90;;;;;;4966501;28;20520;-78
2022/12/26 09:06:12;;;;;;;9.88;4.13;;;8.00;99.90;;;;;;4963904;28;20055;-79
2022/12/26 09:08:38;;;;;;;11.52;4.57;;;8.00;99.90;;;;;;4966251;28;20057;-78
2022/12/26 09:11:13;;;;;;;11.35;4.13;;;8.00;99.90;;;;;;4965923;28;20051;-79
2022/12/26 09:13:39;;;;;;;20.60;2.88;;;7.90;99.90;;;;;;4964629;28;20161;-79
2022/12/26 09:16:05;;;;;;;8.40;2.60;;;7.80;99.90;;;;;;4965737;28;20043;-79
2022/12/26 09:18:30;;;;;;;6.93;3.30;;;7.70;99.90;;;;;;4964883;28;20530;-78
2022/12/26 09:20:59;;;;;;;5.05;2.42;;;7.70;99.90;;;;;;4965043;28;20047;-78
2022/12/26 09:23:26;;;;;;;16.35;4.13;;;7.60;99.90;;;;;;4966093;28;20046;-78
2022/12/26 09:25:51;;;;;;;11.43;3.55;;;7.50;99.90;;;;;;4965629;28;20413;-79
2022/12/26 09:28:17;;;;;;;7.10;2.28;;;7.40;99.90;;;;;;4947244;28;20051;-78
2022/12/26 09:30:43;;;;;;;4.15;2.35;;;7.40;99.90;;;;;;4946278;29;20043;-79
2022/12/26 09:33:09;;;;;;;14.13;3.17;;;7.30;99.90;;;;;;4946506;29;20335;-78
2022/12/26 09:35:38;;;;;;;8.15;2.10;;;7.30;99.90;;;;;;4945629;29;20130;-79
2022/12/26 09:38:04;;;;;;;9.50;2.55;;;7.20;99.90;;;;;;4945638;29;20335;-78
2022/12/26 09:40:40;;;;;;;4.90;2.20;;;7.20;99.90;;;;;;4946639;29;20054;-79
2022/12/26 09:43:19;;;;;;;5.10;1.92;;;7.20;99.90;;;;;;4946528;29;20316;-79
2022/12/26 09:45:59;;;;;;;7.60;2.20;;;7.20;99.90;;;;;;4945225;29;20051;-79
2022/12/26 09:48:38;;;;;;;5.10;2.40;;;7.20;99.90;;;;;;4945644;29;20074;-78
2022/12/26 09:51:04;;;;;;;7.18;2.80;;;7.20;99.90;;;;;;4945273;29;20054;-78
2022/12/26 09:53:34;;;;;;;5.93;2.72;;;7.20;99.90;;;;;;4947623;28;20083;-78
2022/12/26 09:56:04;;;;;;;10.73;2.40;;;7.20;99.90;;;;;;4948594;29;20043;-78
2022/12/26 09:58:31;;;;;;;12.20;3.80;;;7.30;99.90;;;;;;4950200;28;20332;-79
2022/12/26 10:01:16;;;;;;;20.67;3.05;;;7.30;99.90;;;;;;4949648;29;20079;-78
2022/12/26 10:03:44;;;;;;;7.88;2.35;;;7.30;99.90;;;;;;4949905;28;20049;-78
2022/12/26 10:06:29;;;;;;;10.52;3.30;;;7.30;99.90;;;;;;4931704;29;20130;-78
2022/12/26 10:09:21;;;;;;;26.35;4.07;;;7.30;99.90;;;;;;4949838;28;20050;-78
2022/12/26 10:12:02;;;;;;;;;;;7.30;99.90;;;;;;4950476;29;20151;-78
2022/12/26 10:14:48;;;;;;;8.23;2.58;;;7.20;99.90;;;;;;4949755;29;20072;-79
2022/12/26 10:17:22;;;;;;;5.63;2.35;;;7.20;99.90;;;;;;4950092;29;20512;-78
2022/12/26 10:20:19;;;;;;;4.75;1.40;;;7.20;99.90;;;;;;4950115;29;20098;-78
2022/12/26 10:23:23;;;;;;;6.72;2.53;;;7.10;99.90;;;;;;4948626;29;20441;-79
2022/12/26 10:26:30;;;;;;;11.07;3.58;;;7.00;99.90;;;;;;4948388;29;20064;-80
2022/12/26 10:28:57;;;;;;;5.78;1.40;;;7.00;99.90;;;;;;4963860;28;20039;-78
2022/12/26 10:31:44;;;;;;;7.55;1.67;;;7.00;99.90;;;;;;4948478;29;20081;-79
2022/12/26 10:34:22;;;;;;;3.00;1.67;;;6.90;99.90;;;;;;4931952;29;20126;-78
2022/12/26 10:36:49;;;;;;;7.15;1.63;;;6.90;99.90;;;;;;4949112;28;20039;-78
2022/12/26 10:39:32;;;;;;;1.67;1.20;;;6.90;99.90;;;;;;4948215;29;20046;-78
2022/12/26 10:42:06;;;;;;;4.25;1.63;;;6.90;99.90;;;;;;4947929;29;20047;-78
2022/12/26 10:44:32;;;;;;;20.05;2.08;;;6.90;99.90;;;;;;4949276;28;20047;-78
2022/12/26 10:47:12;;;;;;;4.78;1.42;;;6.90;99.90;;;;;;4947844;29;20039;-78
2022/12/26 10:49:38;;;;;;;4.95;2.20;;;6.90;99.90;;;;;;4947881;29;20101;-78
2022/12/26 10:52:04;;;;;;;7.50;1.20;;;6.90;99.90;;;;;;4947995;29;20039;-78
2022/12/26 10:54:29;;;;;;;7.47;2.92;;;6.90;99.90;;;;;;4949057;28;20039;-78
2022/12/26 10:56:57;;;;;;;4.22;2.50;;;6.90;99.90;;;;;;4963813;28;20047;-79
2022/12/26 10:59:49;;;;;;;2.95;1.80;;;6.90;99.90;;;;;;4948989;28;20048;-78
2022/12/26 11:02:28;;;;;;;2.78;1.35;;;6.90;99.90;;;;;;4948134;29;20039;-78
2022/12/26 11:05:00;;;;;;;3.60;1.77;;;6.90;99.90;;;;;;4947927;28;20051;-79
2022/12/26 11:07:32;;;;;;;13.13;2.55;;;6.90;99.90;;;;;;4948283;28;20039;-78
2022/12/26 11:09:58;;;;;;;5.30;1.65;;;6.80;99.90;;;;;;4948821;28;20050;-78
2022/12/26 11:12:35;;;;;;;5.70;1.88;;;6.90;99.90;;;;;;4948903;28;20036;-78
2022/12/26 11:15:05;;;;;;;22.70;4.82;;;6.80;99.90;;;;;;4947217;29;20490;-78
2022/12/26 11:17:37;;;;;;;18.88;4.00;;;6.90;99.90;;;;;;4948998;28;20095;-79
2022/12/26 11:20:14;;;;;;;7.65;2.88;;;6.90;99.90;;;;;;4948752;28;20057;-78
2022/12/26 11:22:41;;;;;;;8.60;4.63;;;6.90;99.90;;;;;;4931492;29;20050;-78
2022/12/26 11:25:22;;;;;;;11.05;3.78;;;6.90;99.90;;;;;;4948897;28;20085;-78
2022/12/26 11:27:56;;;;;;;14.95;2.72;;;6.90;99.90;;;;;;4962824;28;20383;-78
2022/12/26 11:30:35;;;;;;;14.85;3.00;;;6.90;99.90;;;;;;4967770;28;20459;-79
2022/12/26 11:33:08;;;;;;;5.15;3.28;;;6.80;99.90;;;;;;4967585;28;20123;-79
2022/12/26 11:35:36;;;;;;;7.78;2.35;;;6.80;99.90;;;;;;4966880;28;20043;-78
2022/12/26 11:38:05;;;;;;;14.85;2.40;;;6.80;99.90;;;;;;4967441;28;20057;-78
2022/12/26 11:40:36;;;;;;;8.30;2.67;;;6.80;99.90;;;;;;4967515;28;20489;-79
2022/12/26 11:43:13;;;;;;;4.38;2.17;;;6.80;99.90;;;;;;4966923;28;20520;-79
2022/12/26 11:45:47;;;;;;;11.80;2.20;;;6.80;99.90;;;;;;4967555;28;20113;-78
2022/12/26 11:48:25;;;;;;;17.80;2.65;;;6.80;99.90;;;;;;4967355;28;20047;-78
2022/12/26 11:50:51;;;;;;;7.55;3.55;;;6.70;99.90;;;;;;4966289;28;20122;-79
2022/12/26 11:53:20;;;;;;;5.72;1.67;;;6.80;99.90;;;;;;4967832;28;20039;-78
2022/12/26 11:56:00;;;;;;;12.57;2.78;;;6.80;99.90;;;;;;4967403;28;20118;-78
2022/12/26 11:58:29;;;;;;;6.28;2.38;;;6.70;99.90;;;;;;4966410;28;20046;-78
2022/12/26 12:00:58;;;;;;;4.60;2.50;;;6.70;99.90;;;;;;4966895;28;20462;-78
2022/12/26 12:03:39;;;;;;;6.20;1.75;;;6.80;99.90;;;;;;4967372;28;20066;-78
2022/12/26 12:06:21;;;;;;;5.65;3.15;;;6.80;99.90;;;;;;4965320;28;20149;-78
2022/12/26 12:08:47;;;;;;;;;;;6.80;99.90;;;;;;4950288;28;20522;-78
2022/12/26 12:11:24;;;;;;;4.45;2.00;;;6.80;99.90;;;;;;4965925;28;20226;-78
2022/12/26 12:14:12;;;;;;;8.30;3.38;;;6.80;99.90;;;;;;4965216;28;20405;-79
2022/12/26 12:17:05;;;;;;;17.10;2.70;;;6.80;99.90;;;;;;4966702;28;20078;-78
2022/12/26 12:19:30;;;;;;;;;;;6.80;99.90;;;;;;4965503;28;20043;-78
2022/12/26 12:22:09;;;;;;;8.75;3.65;;;6.90;99.90;;;;;;4965340;28;19928;-78
2022/12/26 12:24:49;;;;;;;5.20;2.55;;;6.90;99.90;;;;;;4966045;28;20516;-78
2022/12/26 12:27:31;;;;;;;6.45;2.10;;;6.90;99.90;;;;;;4964876;28;20054;-78
2022/12/26 12:30:15;;;;;;;;;;;6.90;99.90;;;;;;4966225;28;20086;-77
2022/12/26 12:33:18;;;;;;;5.13;1.75;;;6.80;99.90;;;;;;4966053;28;19969;-78
2022/12/26 12:35:59;;;;;;;4.03;1.88;;;6.80;99.90;;;;;;4948080;28;20059;-78
2022/12/26 12:38:31;;;;;;;4.82;1.50;;;6.70;99.90;;;;;;4966381;28;20039;-78
2022/12/26 12:41:21;;;;;;;12.73;2.15;;;6.70;99.90;;;;;;4965651;28;20043;-78
2022/12/26 12:43:57;;;;;;;6.90;2.95;;;6.70;99.90;;;;;;4966317;28;20074;-78
2022/12/26 12:46:26;;;;;;;13.32;2.05;;;6.70;99.90;;;;;;4969811;28;20051;-79
2022/12/26 12:49:30;;;;;;;5.88;2.95;;;6.60;99.90;;;;;;4965132;28;20131;-78
2022/12/26 12:52:23;;;;;;;22.52;7.22;;;6.60;99.90;;;;;;4973428;28;20043;-77
2022/12/26 12:54:54;;;;;;;17.02;3.25;;;6.60;99.90;;;;;;4968819;28;20050;-79
2022/12/26 12:57:29;;;;;;;8.43;1.37;;;6.60;99.90;;;;;;4965657;28;20050;-78
2022/12/26 13:00:22;;;;;;;6.15;2.40;;;6.60;99.90;;;;;;4966019;28;20039;-77
2022/12/26 13:02:57;;;;;;;4.40;1.52;;;6.60;99.90;;;;;;4978120;28;20504;-76
2022/12/26 13:05:45;;;;;;;2.33;1.58;;;6.60;99.90;;;;;;4971726;28;20055;-77
2022/12/26 13:08:16;;;;;;;6.38;2.28;;;6.60;99.90;;;;;;4971346;28;20053;-78
2022/12/26 13:10:50;;;;;;;13.10;2.85;;;6.60;99.90;;;;;;4970238;28;20117;-78
2022/12/26 13:13:28;;;;;;;6.35;2.47;;;6.70;99.90;;;;;;4963962;28;20043;-85
2022/12/26 13:16:00;;;;;;;5.97;2.15;;;6.60;99.90;;;;;;4940690;28;20051;-82
2022/12/26 13:18:32;;;;;;;2.08;1.88;;;6.70;99.90;;;;;;4962917;28;20097;-88
2022/12/26 13:21:11;;;;;;;6.45;2.28;;;6.60;99.90;;;;;;4931521;28;20490;-80
2022/12/26 13:26:35;;;;;;;6.72;2.53;;;6.60;99.90;;;;;;4961564;28;20099;-79
2022/12/26 13:29:23;;;;;;;4.15;1.88;;;6.60;99.90;;;;;;4958963;28;20046;-80
2022/12/26 13:31:48;;;;;;;7.55;2.50;;;6.60;99.90;;;;;;4958009;28;20047;-85
2022/12/26 13:34:17;;;;;;;5.53;1.70;;;6.50;99.90;;;;;;4962764;28;20046;-81
2022/12/26 13:36:42;;;;;;;5.32;2.38;;;6.50;99.90;;;;;;4966560;28;20058;-83
2022/12/26 13:39:16;;;;;;;15.13;2.67;;;6.50;99.90;;;;;;4965530;28;20062;-84
2022/12/26 13:44:36;;;;;;;7.82;3.22;;;6.50;99.90;;;;;;4961935;28;20050;-85
2022/12/26 13:47:01;;;;;;;7.32;3.47;;;6.50;99.90;;;;;;4961652;28;20113;-80
2022/12/26 13:49:37;;;;;;;4.68;2.00;;;6.50;99.90;;;;;;5000122;28;20472;-80
2022/12/26 13:52:18;;;;;;;10.93;1.92;;;6.40;99.90;;;;;;4963022;28;20035;-78
2022/12/26 13:54:46;;;;;;;3.35;2.35;;;6.40;99.90;;;;;;4960468;28;20035;-80
2022/12/26 13:57:31;;;;;;;9.80;1.95;;;6.40;99.90;;;;;;4964115;28;20149;-78
2022/12/26 14:00:08;;;;;;;5.25;2.25;;;6.40;99.90;;;;;;4965265;28;20133;-81
2022/12/26 14:03:01;;;;;;;6.20;2.97;;;6.40;99.90;;;;;;4962082;28;20165;-81
2022/12/26 14:05:34;;;;;;;;;;;6.40;99.90;;;;;;4968375;28;20050;-83
2022/12/26 14:08:32;;;;;;;8.50;1.83;;;6.40;99.90;;;;;;4970116;28;19921;-83
2022/12/26 14:11:18;;;;;;;3.83;1.30;;;6.40;99.90;;;;;;4969809;28;20039;-84
2022/12/26 14:13:49;;;;;;;7.28;2.08;;;6.40;99.90;;;;;;4964485;28;20478;-78
2022/12/26 14:16:33;;;;;;;4.00;2.08;;;6.30;99.90;;;;;;4952147;28;20039;-82
2022/12/26 14:19:34;;;;;;;4.03;2.08;;;6.30;99.90;;;;;;4969312;28;20112;-78
2022/12/26 14:22:08;;;;;;;3.17;1.40;;;6.30;99.90;;;;;;4967219;28;20398;-81
2022/12/26 14:24:59;;;;;;;4.38;2.05;;;6.30;99.90;;;;;;4968769;28;20047;-80
2022/12/26 14:27:36;;;;;;;9.45;1.98;;;6.20;99.90;;;;;;4968929;28;20542;-83
2022/12/26 14:30:19;;;;;;;3.85;1.60;;;6.20;99.90;;;;;;5000733;28;20078;-84
2022/12/26 14:33:16;;;;;;;9.88;1.70;;;6.20;99.90;;;;;;4968464;28;20545;-86
2022/12/26 14:36:06;;;;;;;8.88;3.08;;;6.20;99.90;;;;;;4969175;28;20042;-85
2022/12/26 14:39:10;;;;;;;9.65;3.08;;;6.10;99.90;;;;;;4969197;28;20047;-85
2022/12/26 14:44:51;;;;;;;14.52;2.20;;;6.00;99.90;;;;;;4968104;28;20047;-83
2022/12/26 14:47:48;;;;;;;10.90;2.97;;;5.90;99.90;;;;;;4952419;28;20201;-85
2022/12/26 14:50:31;;;;;;;16.02;4.00;;;5.90;99.90;;;;;;4968309;28;20054;-84
2022/12/26 14:53:19;;;;;;;3.28;1.30;;;5.90;99.90;;;;;;4967836;28;20524;-85
2022/12/26 14:55:51;;;;;;;12.90;2.63;;;5.90;99.90;;;;;;4968093;28;20050;-83
2022/12/26 14:58:48;;;;;;;5.18;1.95;;;5.80;99.90;;;;;;4969753;28;20122;-82
2022/12/26 15:01:17;;;;;;;23.23;2.30;;;5.80;99.90;;;;;;4967859;28;20054;-85
2022/12/26 15:04:00;;;;;;;4.88;2.08;;;5.80;99.90;;;;;;4966961;28;20489;-87
2022/12/26 15:06:54;;;;;;;5.60;2.97;;;5.70;99.90;;;;;;4950262;28;20047;-86
2022/12/26 15:09:31;;;;;;;9.23;2.53;;;5.70;99.90;;;;;;4949946;28;20068;-87
2022/12/26 15:12:26;;;;;;;9.45;3.45;;;5.70;99.90;;;;;;4949348;29;20047;-84
2022/12/26 15:15:22;;;;;;;7.25;3.22;;;5.70;99.90;;;;;;4957127;28;20134;-86
2022/12/26 15:18:04;;;;;;;7.32;2.45;;;5.70;99.90;;;;;;4969413;28;20129;-86
2022/12/26 15:20:54;;;;;;;15.30;1.73;;;5.60;99.90;;;;;;4960387;28;20043;-83
2022/12/26 15:23:44;;;;;;;5.57;1.58;;;5.60;99.90;;;;;;4967399;28;20516;-83
2022/12/26 15:26:47;;;;;;;16.73;3.85;;;5.50;99.90;;;;;;4960814;28;20038;-83
2022/12/26 15:29:36;;;;;;;3.22;1.60;;;5.50;99.90;;;;;;4947199;29;20086;-80
2022/12/26 15:32:36;;;;;;;3.38;1.50;;;5.50;99.90;;;;;;4957127;28;20093;-83
2022/12/26 15:35:13;;;;;;;13.88;3.55;;;5.40;99.90;;;;;;4948013;28;20046;-83